Flight Track Log - Related Links

Times and Time Zones

All times are in EDT time to prevent confusion due to time zone crossing. See the N724AE flight status page for this flight to view local times or setup timezone preferences in your user account.

Time Position Orientation Groundspeed Altitude Reporting Facility
EDT Latitude Longitude Course Direction KTS MPH feet Rate Location/Type
Thu 12:23:55 PM 32.9333 -97.0500 332° Northwest 197 227 2,800  Level Dallas / Fort Worth TRACON
Thu 12:24:56 PM 33.0000 -97.0500 360° North 227 261 5,300 2,561 Climbing Dallas / Fort Worth TRACON
Thu 12:25:00 PM 32.8213 -96.8057 10° North  Level FlightAware Approximate
Thu 12:26:00 PM 32.9307 -96.8000 North  Level FlightAware Approximate
Thu 12:26:39 PM 33.1147 -97.0614 355° North 237 273 9,800  Level Fort Worth Center
Thu 12:27:00 PM 33.0317 -96.8363 328° Northwest  Level FlightAware Approximate
Thu 12:27:39 PM 33.1919 -97.0733 353° North 262 302 11,000  Level Fort Worth Center
Thu 12:28:00 PM 33.1282 -96.8987 332° Northwest  Level FlightAware Approximate
Thu 12:28:39 PM 33.2858 -97.0853 354° North 316 364 12,400  Level Fort Worth Center
Thu 12:29:00 PM 33.2255 -96.9595 332° Northwest  Level FlightAware Approximate
Thu 12:29:39 PM 33.3736 -97.0975 353° North 342 394 14,000  Level Fort Worth Center
Thu 12:30:39 PM 33.4781 -97.1072 356° North 347 399 16,100 1,950 Climbing Fort Worth Center
Thu 12:31:39 PM 33.5614 -97.0969 North 347 399 17,900 1,800 Climbing Fort Worth Center
Thu 12:32:39 PM 33.6678 -97.0842 North 347 399 19,700 1,800 Climbing Fort Worth Center
Thu 12:33:39 PM 33.7533 -97.0711 North 347 399 21,500 1,750 Climbing Fort Worth Center
Thu 12:34:39 PM 33.8494 -97.0583 North 347 399 23,200 1,650 Climbing Fort Worth Center
Thu 12:35:39 PM 33.9558 -97.0453 North 347 399 24,800 1,550 Climbing Fort Worth Center
Thu 12:36:39 PM 34.0497 -97.0325 North 352 405 26,300 1,100 Climbing Fort Worth Center
Thu 12:37:39 PM 34.1456 -97.0219 North 346 398 27,000 850 Climbing Fort Worth Center
Thu 12:38:39 PM 34.2500 -97.0114 North 353 406 28,000 1,050 Climbing Fort Worth Center
Thu 12:39:39 PM 34.3564 -96.9958 North 365 420 29,100 1,100 Climbing Fort Worth Center
Thu 12:40:39 PM 34.4500 -96.9500 22° Northeast 358 412 30,200 1,250 Climbing Fort Worth Center
Thu 12:41:39 PM 34.5436 -96.8867 29° Northeast 368 423 31,600 1,250 Climbing Fort Worth Center
Thu 12:42:39 PM 34.6414 -96.8256 27° Northeast 379 436 32,700 1,250 Climbing Fort Worth Center
Thu 12:43:39 PM 34.7350 -96.7617 29° Northeast 384 442 34,100 1,400 Climbing Fort Worth Center
Thu 12:44:39 PM 34.8306 -96.7003 28° Northeast 390 449 35,500 1,200 Climbing Fort Worth Center
Thu 12:45:39 PM 34.9242 -96.6361 29° Northeast 385 443 36,500 750 Climbing Fort Worth Center
Thu 12:46:39 PM 35.0114 -96.5769 29° Northeast 391 450 37,000 250 Climbing Fort Worth Center
Thu 12:47:39 PM 35.1131 -96.5125 27° Northeast 391 450 37,000  Level Fort Worth Center
Thu 12:48:39 PM 35.2169 -96.4428 29° Northeast 403 464 37,000  Level Fort Worth Center
Thu 12:49:39 PM 35.3186 -96.3756 28° Northeast 410 472 37,000  Level Fort Worth Center
Thu 12:50:39 PM 35.4222 -96.3056 29° Northeast 410 472 37,000  Level Fort Worth Center
Thu 12:52:27 PM 35.6083 -96.1819 28° Northeast 420 483 37,000  Level Kansas City Center
Thu 12:53:28 PM 35.7139 -96.1106 29° Northeast 429 494 37,000  Level Kansas City Center
Thu 12:54:30 PM 35.8353 -96.0306 28° Northeast 435 501 37,000  Level Kansas City Center
Thu 12:55:33 PM 35.9419 -95.9597 28° Northeast 435 501 37,000  Level Kansas City Center
Thu 12:56:34 PM 36.0469 -95.8883 29° Northeast 431 496 37,000  Level Kansas City Center
Thu 12:57:38 PM 36.1514 -95.8175 29° Northeast 428 493 37,000  Level Kansas City Center
Thu 12:58:38 PM 36.2603 -95.7447 28° Northeast 428 493 37,000  Level Kansas City Center
Thu 12:59:42 PM 36.3678 -95.6756 27° Northeast 433 498 37,000  Level Kansas City Center
Thu 01:00:43 PM 36.4758 -95.6028 28° Northeast 438 504 37,000  Level Kansas City Center
Thu 01:01:44 PM 36.5856 -95.5306 28° Northeast 445 512 37,000  Level Kansas City Center
Thu 01:02:48 PM 36.7000 -95.4544 28° Northeast 443 510 37,000  Level Kansas City Center
Thu 01:03:49 PM 36.8281 -95.3686 28° Northeast 435 501 37,000 -384 Level Kansas City Center
Thu 01:04:53 PM 36.9347 -95.2986 28° Northeast 431 496 36,200 -960 Descending Kansas City Center
Thu 01:05:54 PM 37.0400 -95.2272 28° Northeast 430 495 35,000 -1,033 Descending Kansas City Center
Thu 01:06:55 PM 37.1386 -95.1617 28° Northeast 407 468 34,100 -864 Descending Kansas City Center
Thu 01:07:59 PM 37.2372 -95.0956 28° Northeast 400 460 33,200 -919 Descending Kansas City Center
Thu 01:08:59 PM 37.3408 -95.0269 28° Northeast 413 475 32,200 -934 Descending Kansas City Center
Thu 01:10:01 PM 37.4497 -94.9528 28° Northeast 434 499 31,300 -576 Descending Kansas City Center
Thu 01:11:04 PM 37.5794 -94.8653 28° Northeast 440 506 31,000 -145 Descending Kansas City Center
Thu 01:12:05 PM 37.6861 -94.7914 29° Northeast 431 496 31,000  Level Kansas City Center
Thu 01:13:08 PM 37.7864 -94.7233 28° Northeast 427 491 31,000  Level Kansas City Center
Thu 01:14:09 PM 37.9028 -94.6442 28° Northeast 426 490 31,000  Level Kansas City Center
Thu 01:15:12 PM 38.0025 -94.5744 29° Northeast 427 491 31,000  Level Kansas City Center
Thu 01:16:13 PM 38.1031 -94.5053 28° Northeast 429 494 31,000  Level Kansas City Center
Thu 01:17:15 PM 38.2197 -94.4236 29° Northeast 429 494 31,000  Level Kansas City Center
Thu 01:18:18 PM 38.3203 -94.3547 28° Northeast 429 494 31,000  Level Kansas City Center
Thu 01:19:19 PM 38.4394 -94.2694 29° Northeast 436 502 31,000  Level Kansas City Center
Thu 01:20:22 PM 38.5403 -94.1997 28° Northeast 433 498 31,000  Level Kansas City Center
Thu 01:21:22 PM 38.6578 -94.1172 29° Northeast 432 497 31,000  Level Kansas City Center
Thu 01:22:26 PM 38.7575 -94.0461 29° Northeast 430 495 31,000  Level Kansas City Center
Thu 01:23:26 PM 38.8742 -93.9639 29° Northeast 431 496 31,000  Level Kansas City Center
Thu 01:24:30 PM 38.9733 -93.8933 29° Northeast 427 491 31,000  Level Kansas City Center
Thu 01:25:31 PM 39.0889 -93.8108 29° Northeast 427 491 31,000  Level Kansas City Center
Thu 01:26:35 PM 39.1878 -93.7411 29° Northeast 425 489 31,000  Level Kansas City Center
Thu 01:27:36 PM 39.2900 -93.6678 29° Northeast 424 488 31,000  Level Kansas City Center
Thu 01:28:37 PM 39.3933 -93.5944 29° Northeast 427 491 31,000  Level Kansas City Center
Thu 01:29:41 PM 39.5156 -93.5056 29° Northeast 423 487 31,000  Level Kansas City Center
Thu 01:30:41 PM 39.6147 -93.4278 31° Northeast 422 486 31,000  Level Kansas City Center
Thu 01:31:45 PM 39.7181 -93.3575 28° Northeast 419 482 31,000  Level Kansas City Center
Thu 01:32:45 PM 39.8194 -93.2819 30° Northeast 421 484 31,000  Level Kansas City Center
Thu 01:33:49 PM 39.9203 -93.2069 30° Northeast 421 484 31,000  Level Kansas City Center
Thu 01:34:51 PM 40.0433 -93.1169 29° Northeast 423 487 31,000 -197 Level Kansas City Center
Thu 01:35:51 PM 40.1511 -93.0392 29° Northeast 424 488 30,600 -634 Descending Kansas City Center
Thu 01:36:54 PM 40.2511 -92.9611 31° Northeast 434 499 29,700 -774 Descending Kansas City Center
Thu 01:37:55 PM 40.3539 -92.8864 29° Northeast 439 505 29,000 -336 Descending Kansas City Center
Thu 01:38:59 PM 40.4717 -92.7978 30° Northeast 437 503 29,000  Level Kansas City Center
Thu 01:40:00 PM 40.5697 -92.7228 30° Northeast 428 493 29,000  Level Kansas City Center
Thu 01:41:06 PM 40.6950 -92.6300 29° Northeast 436 502 29,000 -188 Level Chicago Center
Thu 01:42:08 PM 40.8006 -92.5478 31° Northeast 439 505 28,600 -871 Descending Chicago Center
Thu 01:43:10 PM 40.9069 -92.4675 30° Northeast 441 507 27,200 -2,032 Descending Chicago Center
Thu 01:44:12 PM 41.0103 -92.3869 30° Northeast 436 502 24,400 -3,048 Descending Chicago Center
Thu 01:45:14 PM 41.1344 -92.2928 30° Northeast 431 496 20,900 -3,145 Descending Chicago Center
Thu 01:46:16 PM 41.2344 -92.2161 30° Northeast 420 483 17,900 -2,710 Descending Chicago Center
Thu 01:47:18 PM 41.3333 -92.1414 30° Northeast 380 437 15,300 -2,565 Descending Chicago Center
Thu 01:48:20 PM 41.4222 -92.0719 30° Northeast 373 429 12,600 -1,887 Descending Chicago Center
Thu 01:49:22 PM 41.5042 -92.0092 30° Northeast 340 391 11,400 -1,403 Descending Chicago Center
Thu 01:50:24 PM 41.5733 -91.9550 30° Northeast 292 336 9,700 -1,694 Descending Chicago Center
Thu 01:51:26 PM 41.6208 -91.8714 53° Northeast 288 331 7,900 -2,032 Descending Chicago Center
Thu 01:52:28 PM 41.6736 -91.7747 54° Northeast 274 315 5,500 -1,839 Descending Chicago Center
Thu 01:53:30 PM 41.7236 -91.6992 48° Northeast 275 316 4,100 -1,355 Descending Chicago Center

Login

Don't have an account? Register now (free) for customized features, flight alerts, and more!